METAR Reports From Nearby Airports

 

KLUD - Decatur, Texas, USA
Distance from Wildwood: ESE 5mi, 8km
Updated: Nov 12, 2019 4:15am
Clear
Clear
 Wind from NNW
Wind: NNW 10 mph , 17 km/h, Gust: 23 mph , 37 km/h
Temperature: 21°F , -6°C
Wind Chill: 10°F , -12°C
Dew Point: 10°F , -12°C
Humidity: 63%
Barometer: 30.62 inHg , 1036.9 hPa
Clouds: Clear
Visibility: 7 miles , 11 km
2019/11/12 10:15 KLUD 121015Z AUTO 34009G20KT 7SM CLR M06/M12 A3062 RMK AO2 T10601122
KXBP - Bridgeport, Texas, USA
Distance from Wildwood: WSW 11mi, 18km
Updated: Nov 12, 2019 4:15am
Clear
Clear
 Wind from N
Wind: N 16 mph , 26 km/h, Gust: 23 mph , 37 km/h
Temperature: 23°F , -5°C
Wind Chill: 10°F , -12°C
Dew Point: 10°F , -12°C
Humidity: 58%
Barometer: 30.67 inHg , 1038.6 hPa
Clouds: Clear
Visibility: 10 miles , 16 km
2019/11/12 10:15 KXBP 121015Z AUTO 01014G20KT 10SM CLR M05/M12 A3067 RMK AO2 T10541116
 
K0F2 - Bowie, Texas, USA
Distance from Wildwood: NNW 24mi, 39km
Updated: Nov 12, 2019 4:15am
Clear
Clear
 Wind from NNW
Wind: NNW 9 mph , 15 km/h
Temperature: 23°F , -5°C
Wind Chill: 13°F , -11°C
Dew Point: 14°F , -10°C
Humidity: 68%
Barometer: 30.65 inHg , 1037.9 hPa
Clouds: Clear
Visibility: 10 miles , 16 km
2019/11/12 10:15 K0F2 121015Z AUTO 34008KT 10SM CLR M05/M10 A3065 RMK AO2 T10521105
KDTO - Denton, Texas, USA
Distance from Wildwood: E 27mi, 44km
Updated: Nov 12, 2019 3:53am
Clear
Clear
 Wind from N
Wind: N 18 mph , 30 km/h
Temperature: 23°F , -5°C
Wind Chill: 9°F , -13°C
Dew Point: 10°F , -12°C
Humidity: 58%
Barometer: 30.63 inHg , 1037.3 hPa
Clouds: Clear
Visibility: 10 miles , 16 km
2019/11/12 09:53 KDTO 120953Z AUTO 36016KT 10SM CLR M05/M12 A3063 RMK AO2 SLP379 T10501117
 
KAFW - Ft Worth/Allianc, Texas, USA
Distance from Wildwood: SE 29mi, 46km
Updated: Nov 12, 2019 3:53am
Partly Cloudy
Partly Cloudy
 Wind from N
Wind: N 18 mph , 30 km/h
Temperature: 25°F , -4°C
Wind Chill: 11°F , -12°C
Dew Point: 10°F , -12°C
Humidity: 54%
Barometer: 30.61 inHg , 1036.6 hPa
Clouds: Partly Cloudy
Visibility: 10 miles , 16 km
Cloud details: Few Clouds 25000 ft
Partly Cloudy 30000 ft
2019/11/12 09:53 KAFW 120953Z 36016KT 10SM FEW250 SCT300 M04/M12 A3061 RMK AO2 PK WND 36029/0908 SLP380 T10441117
KFTW - Fort Worth, Texas, USA
Distance from Wildwood: SSE 34mi, 55km
Updated: Nov 12, 2019 3:53am
Clear
Clear
 Wind from N
Wind: N 22 mph , 35 km/h, Gust: 32 mph , 52 km/h
Temperature: 23°F , -5°C
Wind Chill: 8°F , -13°C
Dew Point: 12°F , -11°C
Humidity: 63%
Barometer: 30.61 inHg , 1036.6 hPa
Clouds: Clear
Visibility: 10 miles , 16 km
2019/11/12 09:53 KFTW 120953Z 35019G28KT 10SM CLR M05/M11 A3061 RMK AO2 PK WND 34030/0900 SLP373 T10501111
 
KNFW - Fort Worth Nas, Texas, USA
Distance from Wildwood: SSE 36mi, 58km
Updated: Nov 12, 2019 3:52am
Light snow, Clear
Light snow, Clear
 Wind from N
Wind: N 16 mph , 26 km/h
Temperature: 28°F , -2°C
Wind Chill: 16°F , -9°C
Dew Point: 12°F , -11°C
Humidity: 51%
Barometer: 30.64 inHg , 1037.6 hPa
Summary: Light Snow
Clouds: Clear
Visibility: 9 miles , 14 km
2019/11/12 09:52 KNFW 120952Z AUTO 35014KT 9SM -SN CLR M02/M11 A3064 RMK AO2 PK WND 35029/0934 SLP354 P0000 T10171106 CHINO N VISNO N $
KGLE - Gainesville, Texas, USA
Distance from Wildwood: NE 38mi, 61km
Updated: Nov 04, 2019 8:15am
NOT Current

 Wind from S
Wind: S 13 mph , 20 km/h, Gust: 18 mph , 30 km/h
Temperature: 54°F , 12°C
Dew Point: 50°F , 10°C
Humidity: 88%
Barometer: 30.00 inHg , 1015.9 hPa
Visibility: 10 miles , 16 km
2019/11/04 14:15 KGLE 041415Z AUTO 17011G16KT 10SM 12/10 A3000 RMK AO2 T01170100
 
KMWL - Mineral Wells, Texas, USA
Distance from Wildwood: SW 41mi, 65km
Updated: Nov 12, 2019 3:53am
Clear
Clear
 Wind from N
Wind: N 16 mph , 26 km/h, Gust: 22 mph , 35 km/h
Temperature: 21°F , -6°C
Wind Chill: 7°F , -14°C
Dew Point: 9°F , -13°C
Humidity: 58%
Barometer: 30.62 inHg , 1036.9 hPa
Clouds: Clear
Visibility: 10 miles , 16 km
2019/11/12 09:53 KMWL 120953Z AUTO 35014G19KT 10SM CLR M06/M13 A3062 RMK AO2 SLP379 T10561128
KDFW - Dallas/Ft Worth, Texas, USA
Distance from Wildwood: ESE 45mi, 73km
Updated: Nov 12, 2019 3:53am
Few Clouds
Few Clouds
 Wind from N
Wind: N 22 mph , 35 km/h, Gust: 30 mph , 48 km/h
Temperature: 25°F , -4°C
Wind Chill: 10°F , -12°C
Dew Point: 12°F , -11°C
Humidity: 59%
Barometer: 30.58 inHg , 1035.6 hPa
Clouds: Few Clouds
Visibility: 10 miles , 16 km
Cloud details: Few Clouds 30000 ft
2019/11/12 09:53 KDFW 120953Z 01019G26KT 10SM FEW300 M04/M11 A3058 RMK AO2 PK WND 36027/0920 SLP361 T10441111 $